createdAt,value
2019-02-04T00:01:23.884Z,0.80
2019-02-04T00:03:51.480Z,0.70
2019-02-04T00:06:18.788Z,0.70
2019-02-04T00:08:46.001Z,0.60
2019-02-04T00:11:13.204Z,0.50
2019-02-04T00:13:40.518Z,0.50
2019-02-04T00:16:07.705Z,0.40
2019-02-04T00:18:34.921Z,0.30
2019-02-04T00:21:02.537Z,0.20
2019-02-04T00:23:29.834Z,0.20
2019-02-04T00:25:57.045Z,0.10
2019-02-04T00:28:24.348Z,0.10
2019-02-04T00:30:51.684Z,0.00
2019-02-04T00:33:18.875Z,0.00
2019-02-04T00:35:46.185Z,0.00
2019-02-04T00:38:13.805Z,0.00
2019-02-04T00:40:41.120Z,0.00
2019-02-04T00:43:08.431Z,-0.10
2019-02-04T00:45:35.741Z,-0.10
2019-02-04T00:48:03.096Z,-0.20
2019-02-04T00:50:30.408Z,-0.20
2019-02-04T00:52:57.737Z,-0.20
2019-02-04T00:55:25.439Z,-0.20
2019-02-04T00:57:52.766Z,-0.20
2019-02-04T01:00:22.695Z,-0.20
2019-02-04T01:02:49.925Z,-0.20
2019-02-04T01:05:18.081Z,-0.30
2019-02-04T01:07:45.474Z,-0.30
2019-02-04T01:10:15.331Z,-0.30
2019-02-04T01:12:42.525Z,-0.30
2019-02-04T01:15:09.719Z,-0.30
2019-02-04T01:17:36.909Z,-0.30
2019-02-04T01:20:04.716Z,-0.30
2019-02-04T01:22:32.028Z,-0.30
2019-02-04T01:24:59.237Z,-0.20
2019-02-04T01:27:26.933Z,-0.20
2019-02-04T01:29:54.157Z,-0.20
2019-02-04T01:32:21.456Z,-0.30
2019-02-04T01:34:49.040Z,-0.30
2019-02-04T01:37:16.401Z,-0.30
2019-02-04T01:39:43.645Z,-0.30
2019-02-04T01:42:10.838Z,-0.30
2019-02-04T01:44:38.238Z,-0.30
2019-02-04T01:47:14.451Z,-0.30
2019-02-04T01:49:34.783Z,-0.30
2019-02-04T01:52:02.119Z,-0.30
2019-02-04T01:54:29.631Z,-0.30
2019-02-04T01:56:57.071Z,-0.30
2019-02-04T01:59:24.435Z,-0.30
2019-02-04T02:01:51.784Z,-0.30
2019-02-04T02:04:19.009Z,-0.30
2019-02-04T02:06:46.388Z,-0.40
2019-02-04T02:09:25.337Z,-0.30
2019-02-04T02:11:52.576Z,-0.40
2019-02-04T02:14:20.117Z,-0.40
2019-02-04T02:16:47.416Z,-0.40
2019-02-04T02:19:14.628Z,-0.40
2019-02-04T02:21:41.966Z,-0.40
2019-02-04T02:24:09.268Z,-0.40
2019-02-04T02:26:36.583Z,-0.40
2019-02-04T02:29:04.122Z,-0.50
2019-02-04T02:31:31.734Z,-0.50
2019-02-04T02:33:58.963Z,-0.50
2019-02-04T02:36:26.301Z,-0.50
2019-02-04T02:38:53.679Z,-0.50
2019-02-04T02:41:20.881Z,-0.50
2019-02-04T02:43:48.095Z,-0.50
2019-02-04T02:46:15.385Z,-0.50
2019-02-04T02:48:43.090Z,-0.50
2019-02-04T02:51:10.323Z,-0.50
2019-02-04T02:53:37.564Z,-0.50
2019-02-04T02:56:04.873Z,-0.50
2019-02-04T02:58:32.196Z,-0.40
2019-02-04T03:00:59.442Z,-0.40
2019-02-04T03:03:26.801Z,-0.40
2019-02-04T03:05:54.417Z,-0.40
2019-02-04T03:08:21.668Z,-0.40
2019-02-04T03:10:48.859Z,-0.40
2019-02-04T03:13:16.174Z,-0.40
2019-02-04T03:15:43.406Z,-0.40
2019-02-04T03:18:10.708Z,-0.40
2019-02-04T03:20:38.048Z,-0.40
2019-02-04T03:23:05.780Z,-0.40
2019-02-04T03:25:33.080Z,-0.40
2019-02-04T03:28:00.418Z,-0.40
2019-02-04T03:30:29.960Z,-0.50
2019-02-04T03:32:57.158Z,-0.50
2019-02-04T03:35:24.584Z,-0.50
2019-02-04T03:37:52.478Z,-0.50
2019-02-04T03:40:21.468Z,-0.50
2019-02-04T03:42:48.803Z,-0.50
2019-02-04T03:45:16.330Z,-0.50
2019-02-04T03:47:43.666Z,-0.50
2019-02-04T03:50:11.020Z,-0.60
2019-02-04T03:52:38.335Z,-0.60
2019-02-04T03:55:07.265Z,-0.60
2019-02-04T03:57:34.563Z,-0.60
2019-02-04T04:00:02.015Z,-0.60
2019-02-04T04:02:29.653Z,-0.60
2019-02-04T04:04:56.873Z,-0.70
2019-02-04T04:07:24.198Z,-0.70
2019-02-04T04:09:51.419Z,-0.70
2019-02-04T04:12:19.043Z,-0.80
2019-02-04T04:14:46.357Z,-0.80
2019-02-04T04:17:13.684Z,-0.80
2019-02-04T04:19:40.981Z,-0.80
2019-02-04T04:22:08.418Z,-0.80
2019-02-04T04:24:35.677Z,-0.80
2019-02-04T04:27:03.278Z,-0.80
2019-02-04T04:29:30.775Z,-0.90
2019-02-04T04:31:57.999Z,-0.90
2019-02-04T04:34:25.295Z,-0.90
2019-02-04T04:36:52.521Z,-0.90
2019-02-04T04:39:19.859Z,-0.90
2019-02-04T04:41:47.174Z,-0.90
2019-02-04T04:44:14.395Z,-0.90
2019-02-04T04:46:42.122Z,-0.90
2019-02-04T04:49:09.380Z,-0.90
2019-02-04T04:51:36.701Z,-0.90
2019-02-04T04:54:04.364Z,-1.00
2019-02-04T04:56:31.661Z,-0.90
2019-02-04T04:58:59.011Z,-0.90
2019-02-04T05:01:26.211Z,-0.90
2019-02-04T05:03:53.661Z,-0.90
2019-02-04T05:06:20.855Z,-0.90
2019-02-04T05:08:48.087Z,-0.80
2019-02-04T05:11:15.391Z,-0.80
2019-02-04T05:13:42.785Z,-0.80
2019-02-04T05:16:10.145Z,-0.80
2019-02-04T05:18:38.414Z,-0.80
2019-02-04T05:21:05.982Z,-0.80
2019-02-04T05:23:33.321Z,-0.70
2019-02-04T05:26:00.621Z,-0.70
2019-02-04T05:28:27.935Z,-0.70
2019-02-04T05:30:55.155Z,-0.70
2019-02-04T05:33:22.477Z,-0.70
2019-02-04T05:35:49.803Z,-0.70
2019-02-04T05:38:17.151Z,-0.70
2019-02-04T05:40:44.574Z,-0.70
2019-02-04T05:43:11.803Z,-0.70
2019-02-04T05:45:39.039Z,-0.70
2019-02-04T05:48:06.347Z,-0.80
2019-02-04T05:50:33.671Z,-0.80
2019-02-04T05:53:01.045Z,-0.70
2019-02-04T05:55:30.569Z,-0.80
2019-02-04T05:57:57.453Z,-0.80
2019-02-04T06:00:43.947Z,-0.80
2019-02-04T06:03:11.168Z,-0.80
2019-02-04T06:05:38.895Z,-0.80
2019-02-04T06:08:06.115Z,-0.80
2019-02-04T06:10:33.407Z,-0.80
2019-02-04T06:13:00.619Z,-0.80
2019-02-04T06:15:27.837Z,-0.80
2019-02-04T06:17:55.143Z,-0.80
2019-02-04T06:20:22.332Z,-0.80
2019-02-04T06:22:50.054Z,-0.80
2019-02-04T06:25:17.357Z,-0.80
2019-02-04T06:27:44.683Z,-0.80
2019-02-04T06:30:12.039Z,-0.80
2019-02-04T06:32:39.261Z,-0.80
2019-02-04T06:35:06.653Z,-0.80
2019-02-04T06:37:33.901Z,-0.80
2019-02-04T06:40:01.507Z,-0.80
2019-02-04T06:42:28.802Z,-0.80
2019-02-04T06:44:56.106Z,-0.80
2019-02-04T06:47:23.340Z,-0.80
2019-02-04T06:49:50.637Z,-0.80
2019-02-04T06:52:17.867Z,-0.80
2019-02-04T06:54:45.297Z,-0.80
2019-02-04T06:57:13.809Z,-0.80
2019-02-04T06:59:41.179Z,-0.80
2019-02-04T07:02:08.496Z,-0.80
2019-02-04T07:04:35.881Z,-0.80
2019-02-04T07:07:03.183Z,-0.80
2019-02-04T07:09:30.600Z,-0.70
2019-02-04T07:11:57.917Z,-0.80
2019-02-04T07:14:25.568Z,-0.70
2019-02-04T07:16:52.769Z,-0.70
2019-02-04T07:19:24.265Z,-0.70
2019-02-04T07:21:49.240Z,-0.70
2019-02-04T07:24:16.505Z,-0.70
2019-02-04T07:26:43.702Z,-0.70
2019-02-04T07:29:10.974Z,-0.60
2019-02-04T07:31:38.410Z,-0.60
2019-02-04T07:34:05.799Z,-0.60
2019-02-04T07:36:33.250Z,-0.50
2019-02-04T07:39:00.577Z,-0.50
2019-02-04T07:41:27.956Z,-0.40
2019-02-04T07:43:55.532Z,-0.40
2019-02-04T07:46:25.003Z,-0.40
2019-02-04T07:48:52.085Z,-0.30
2019-02-04T07:51:19.340Z,-0.30
2019-02-04T07:53:46.694Z,-0.20
2019-02-04T07:56:13.977Z,0.00
2019-02-04T07:58:41.346Z,-0.20
2019-02-04T08:01:08.659Z,-0.10
2019-02-04T08:03:35.994Z,-0.10
2019-02-04T08:06:03.460Z,0.00
2019-02-04T08:08:31.962Z,0.00
2019-02-04T08:10:59.404Z,0.00
2019-02-04T08:13:26.714Z,0.10
2019-02-04T08:15:54.060Z,0.10
2019-02-04T08:18:21.392Z,0.20
2019-02-04T08:20:48.756Z,0.30
2019-02-04T08:23:15.994Z,0.30
2019-02-04T08:25:43.240Z,0.30
2019-02-04T08:28:10.555Z,0.40
2019-02-04T08:30:38.537Z,0.40
2019-02-04T08:33:06.117Z,0.50
2019-02-04T08:35:33.430Z,0.60
2019-02-04T08:38:00.731Z,0.80
2019-02-04T08:40:28.343Z,0.90
2019-02-04T08:42:55.983Z,1.00
2019-02-04T08:45:23.349Z,1.10
2019-02-04T08:47:50.888Z,1.20
2019-02-04T08:50:18.547Z,1.40
2019-02-04T08:52:46.247Z,1.50
2019-02-04T08:55:13.596Z,1.50
2019-02-04T08:57:41.018Z,1.60
2019-02-04T09:00:11.108Z,1.60
2019-02-04T09:02:38.442Z,1.70
2019-02-04T09:05:06.510Z,1.80
2019-02-04T09:07:33.834Z,1.80
2019-02-04T09:10:01.156Z,1.90
2019-02-04T09:12:28.665Z,1.90
2019-02-04T09:14:55.880Z,1.90
2019-02-04T09:17:23.198Z,1.90
2019-02-04T09:19:50.649Z,2.00
2019-02-04T09:22:17.957Z,2.00
2019-02-04T09:24:45.303Z,2.10
2019-02-04T09:27:12.658Z,2.10
2019-02-04T09:29:39.984Z,2.20
2019-02-04T09:32:07.378Z,2.20
2019-02-04T09:34:34.698Z,2.30
2019-02-04T09:37:02.412Z,2.30
2019-02-04T09:39:29.632Z,2.50
2019-02-04T09:41:57.007Z,2.50
2019-02-04T09:44:25.420Z,2.60
2019-02-04T09:46:52.816Z,2.70
2019-02-04T09:49:20.226Z,2.80
2019-02-04T09:51:47.660Z,2.90
2019-02-04T09:54:15.368Z,2.90
2019-02-04T09:56:42.705Z,3.00
2019-02-04T09:59:09.991Z,3.00
2019-02-04T10:01:37.373Z,3.10
2019-02-04T10:04:04.733Z,3.20
2019-02-04T10:06:32.164Z,3.30
2019-02-04T10:08:59.518Z,3.40
2019-02-04T10:11:27.216Z,3.40
2019-02-04T10:13:54.541Z,3.60
2019-02-04T10:16:21.765Z,3.70
2019-02-04T10:18:49.239Z,3.90
2019-02-04T10:21:16.710Z,4.20
2019-02-04T10:23:44.143Z,4.60
2019-02-04T10:26:11.577Z,4.80
2019-02-04T10:28:39.232Z,5.00
2019-02-04T10:31:06.637Z,5.30
2019-02-04T10:33:34.162Z,5.60
2019-02-04T10:36:01.754Z,5.70
2019-02-04T10:38:29.067Z,5.90
2019-02-04T10:40:56.488Z,6.40
2019-02-04T10:43:23.833Z,6.80
2019-02-04T10:45:51.407Z,6.90
2019-02-04T10:48:18.812Z,7.40
2019-02-04T10:50:47.259Z,7.70
2019-02-04T10:53:14.602Z,7.90
2019-02-04T10:55:42.018Z,8.30
2019-02-04T10:58:10.731Z,9.00
2019-02-04T11:00:39.099Z,9.40
2019-02-04T11:03:06.679Z,9.50
2019-02-04T11:05:34.838Z,9.70
2019-02-04T11:08:02.357Z,9.90
2019-02-04T11:10:32.927Z,9.70
2019-02-04T11:13:00.474Z,9.80
2019-02-04T11:15:27.957Z,9.50
2019-02-04T11:17:55.649Z,9.50
2019-02-04T11:20:25.149Z,9.80
2019-02-04T11:22:52.693Z,10.10
2019-02-04T11:25:20.449Z,10.10
2019-02-04T11:27:47.821Z,10.30
2019-02-04T11:30:29.610Z,10.30
2019-02-04T11:32:56.996Z,10.30
2019-02-04T11:35:24.444Z,10.10
2019-02-04T11:37:51.833Z,10.20
2019-02-04T11:40:22.457Z,10.20
2019-02-04T11:42:49.946Z,9.90
2019-02-04T11:45:17.417Z,9.40
2019-02-04T11:47:45.180Z,9.20
2019-02-04T11:50:12.619Z,8.80
2019-02-04T11:52:39.945Z,8.10
2019-02-04T11:55:08.153Z,7.70
2019-02-04T11:57:35.385Z,7.60
2019-02-04T12:00:03.926Z,7.70
2019-02-04T12:02:34.659Z,8.00
2019-02-04T12:05:00.514Z,8.20
2019-02-04T12:07:27.865Z,8.50
2019-02-04T12:09:55.201Z,8.50
2019-02-04T12:12:22.518Z,8.50
2019-02-04T12:14:49.897Z,8.70
2019-02-04T12:17:17.105Z,8.70
2019-02-04T12:19:44.441Z,8.60
2019-02-04T12:22:12.039Z,8.20
2019-02-04T12:24:39.357Z,7.90
2019-02-04T12:27:06.734Z,7.90
2019-02-04T12:29:34.112Z,7.80
2019-02-04T12:32:01.501Z,7.60
2019-02-04T12:34:28.882Z,7.20
2019-02-04T12:36:56.372Z,7.00
2019-02-04T12:39:24.113Z,6.70
2019-02-04T12:41:51.373Z,6.60
2019-02-04T12:44:19.213Z,6.40
2019-02-04T12:46:46.534Z,6.30
2019-02-04T12:49:13.890Z,6.20
2019-02-04T12:51:41.244Z,6.30
2019-02-04T12:54:08.565Z,6.30
2019-02-04T12:56:36.224Z,6.30
2019-02-04T12:59:03.541Z,6.30
2019-02-04T13:01:30.776Z,6.40
2019-02-04T13:03:58.137Z,6.40
2019-02-04T13:06:25.495Z,6.40
2019-02-04T13:08:52.789Z,6.40
2019-02-04T13:11:20.135Z,6.30
2019-02-04T13:13:47.791Z,6.30
2019-02-04T13:16:15.100Z,6.30
2019-02-04T13:18:42.660Z,6.40
2019-02-04T13:21:09.965Z,6.40
2019-02-04T13:23:37.399Z,6.50
2019-02-04T13:26:04.717Z,6.50
2019-02-04T13:28:32.075Z,6.40
2019-02-04T13:30:59.696Z,6.40
2019-02-04T13:33:27.053Z,6.30
2019-02-04T13:35:54.289Z,6.30
2019-02-04T13:38:21.534Z,6.40
2019-02-04T13:40:48.859Z,6.50
2019-02-04T13:43:16.193Z,6.50
2019-02-04T13:45:43.640Z,6.50
2019-02-04T13:48:11.241Z,6.50
2019-02-04T13:50:38.815Z,6.50
2019-02-04T13:53:06.418Z,6.40
2019-02-04T13:55:34.193Z,6.30
2019-02-04T13:58:02.369Z,6.20
2019-02-04T14:00:29.801Z,6.20
2019-02-04T14:02:59.291Z,6.20
2019-02-04T14:05:30.940Z,6.10
2019-02-04T14:07:56.983Z,6.20
2019-02-04T14:10:26.599Z,6.20
2019-02-04T14:12:53.834Z,6.20
2019-02-04T14:15:21.469Z,6.20
2019-02-04T14:17:48.811Z,6.10
2019-02-04T14:20:17.453Z,6.10
2019-02-04T14:22:46.558Z,6.10
2019-02-04T14:25:14.477Z,6.00
2019-02-04T14:27:41.908Z,6.00
2019-02-04T14:30:15.571Z,6.00
2019-02-04T14:32:42.911Z,5.90
2019-02-04T14:35:10.131Z,5.70
2019-02-04T14:37:37.491Z,5.60
2019-02-04T14:40:18.091Z,5.50
2019-02-04T14:42:35.488Z,5.50
2019-02-04T14:45:17.406Z,5.40
2019-02-04T14:48:14.788Z,5.40
2019-02-04T14:51:16.552Z,5.40
2019-02-04T14:54:20.688Z,5.30
2019-02-04T14:57:27.647Z,5.30
2019-02-04T15:00:40.346Z,5.30
2019-02-04T15:03:26.165Z,5.30
2019-02-04T15:06:21.088Z,5.30
2019-02-04T15:09:12.709Z,5.30
2019-02-04T15:11:58.982Z,5.20
2019-02-04T15:15:14.159Z,5.10
2019-02-04T15:18:10.509Z,5.10
2019-02-04T15:21:18.459Z,5.00
2019-02-04T15:24:08.957Z,5.00
2019-02-04T15:27:17.612Z,5.00
2019-02-04T15:29:51.580Z,4.90
2019-02-04T15:32:54.619Z,4.90
2019-02-04T15:36:05.269Z,4.90
2019-02-04T15:39:11.570Z,4.90
2019-02-04T15:42:32.469Z,4.90
2019-02-04T15:45:15.065Z,4.90
2019-02-04T15:47:59.121Z,4.80
2019-02-04T15:50:59.732Z,4.80
2019-02-04T15:53:27.075Z,4.80
2019-02-04T15:55:54.423Z,4.70
2019-02-04T15:58:21.825Z,4.70
2019-02-04T16:00:49.184Z,4.70
2019-02-04T16:03:16.528Z,4.70
2019-02-04T16:05:43.854Z,4.70
2019-02-04T16:08:11.195Z,4.70
2019-02-04T16:10:38.428Z,4.70
2019-02-04T16:13:05.745Z,4.70
2019-02-04T16:15:32.946Z,4.70
2019-02-04T16:18:00.580Z,4.70
2019-02-04T16:20:27.935Z,4.60
2019-02-04T16:22:58.575Z,4.60
2019-02-04T16:25:24.631Z,4.60
2019-02-04T16:27:52.004Z,4.60
2019-02-04T16:30:20.100Z,4.60
2019-02-04T16:32:47.444Z,4.60
2019-02-04T16:35:16.112Z,4.60
2019-02-04T16:37:43.627Z,4.60
2019-02-04T16:40:12.987Z,4.60
2019-02-04T16:42:40.302Z,4.60
2019-02-04T16:45:07.950Z,4.60
2019-02-04T16:47:35.299Z,4.60
2019-02-04T16:50:03.219Z,4.60
2019-02-04T16:52:30.544Z,4.60
2019-02-04T16:54:57.875Z,4.50
2019-02-04T16:57:25.134Z,4.50
2019-02-04T16:59:52.452Z,4.50
2019-02-04T17:02:19.789Z,4.50
2019-02-04T17:04:47.131Z,4.50
2019-02-04T17:07:14.402Z,4.40
2019-02-04T17:09:42.044Z,4.40
2019-02-04T17:12:09.283Z,4.40
2019-02-04T17:14:36.648Z,4.40
2019-02-04T17:17:03.876Z,4.40
2019-02-04T17:19:31.232Z,4.40
2019-02-04T17:21:58.582Z,4.40
2019-02-04T17:24:25.801Z,4.40
2019-02-04T17:26:54.357Z,4.40
2019-02-04T17:29:21.737Z,4.30
2019-02-04T17:31:48.985Z,4.30
2019-02-04T17:34:16.313Z,4.30
2019-02-04T17:36:43.677Z,4.30
2019-02-04T17:39:11.095Z,4.30
2019-02-04T17:41:38.335Z,4.30
2019-02-04T17:44:05.970Z,4.30
2019-02-04T17:46:33.492Z,4.30
2019-02-04T17:49:00.830Z,4.30
2019-02-04T17:51:28.158Z,4.20
2019-02-04T17:53:55.512Z,4.20
2019-02-04T17:56:22.961Z,4.10
2019-02-04T17:58:50.353Z,4.10
2019-02-04T18:01:17.993Z,4.10
2019-02-04T18:03:45.242Z,4.20
2019-02-04T18:06:12.542Z,4.20
2019-02-04T18:08:39.911Z,4.20
2019-02-04T18:11:07.357Z,4.30
2019-02-04T18:13:34.910Z,4.30
2019-02-04T18:16:02.241Z,4.40
2019-02-04T18:18:29.917Z,4.40
2019-02-04T18:20:57.401Z,4.40
2019-02-04T18:23:24.754Z,4.40
2019-02-04T18:25:52.110Z,4.40
2019-02-04T18:28:19.635Z,4.40
2019-02-04T18:30:47.012Z,4.40
2019-02-04T18:33:14.649Z,4.30
2019-02-04T18:35:42.124Z,4.30
2019-02-04T18:38:09.619Z,4.30
2019-02-04T18:40:37.068Z,4.30
2019-02-04T18:43:04.531Z,4.40
2019-02-04T18:45:31.984Z,4.30
2019-02-04T18:47:59.383Z,4.40
2019-02-04T18:50:28.289Z,4.40
2019-02-04T18:52:56.158Z,4.40
2019-02-04T18:55:25.821Z,4.40
2019-02-04T18:57:53.195Z,4.40
2019-02-04T19:00:22.474Z,4.40
2019-02-04T19:02:49.844Z,4.40
2019-02-04T19:05:17.358Z,4.40
2019-02-04T19:07:44.720Z,4.40
2019-02-04T19:10:13.472Z,4.40
2019-02-04T19:12:40.824Z,4.40
2019-02-04T19:15:11.224Z,4.40
2019-02-04T19:17:38.586Z,4.40
2019-02-04T19:20:08.434Z,4.40
2019-02-04T19:22:36.106Z,4.40
2019-02-04T19:25:04.984Z,4.40
2019-02-04T19:27:32.469Z,4.40
2019-02-04T19:29:59.837Z,4.40
2019-02-04T19:32:27.157Z,4.40
2019-02-04T19:34:54.493Z,4.40
2019-02-04T19:37:22.962Z,4.40
2019-02-04T19:39:50.637Z,4.40
2019-02-04T19:42:18.022Z,4.40
2019-02-04T19:44:45.433Z,4.40
2019-02-04T19:47:12.689Z,4.40
2019-02-04T19:49:40.111Z,4.40
2019-02-04T19:52:07.375Z,4.40
2019-02-04T19:54:34.723Z,4.40
2019-02-04T19:57:02.289Z,4.40
2019-02-04T19:59:29.591Z,4.40
2019-02-04T20:01:56.951Z,4.40
2019-02-04T20:04:24.231Z,4.40
2019-02-04T20:06:51.670Z,4.40
2019-02-04T20:09:19.042Z,4.40
2019-02-04T20:11:46.331Z,4.40
2019-02-04T20:14:15.995Z,4.40
2019-02-04T20:16:43.344Z,4.40
2019-02-04T20:19:10.894Z,4.40
2019-02-04T20:21:38.274Z,4.40
2019-02-04T20:24:05.754Z,4.40
2019-02-04T20:26:33.109Z,4.40
2019-02-04T20:29:00.484Z,4.40
2019-02-04T20:31:28.036Z,4.40
2019-02-04T20:33:55.381Z,4.40
2019-02-04T20:36:22.738Z,4.40
2019-02-04T20:38:50.086Z,4.40
2019-02-04T20:41:17.440Z,4.40
2019-02-04T20:43:44.782Z,4.40
2019-02-04T20:46:12.207Z,4.40
2019-02-04T20:48:39.572Z,4.40
2019-02-04T20:51:07.248Z,4.40
2019-02-04T20:53:35.766Z,4.40
2019-02-04T20:56:03.220Z,4.40
2019-02-04T20:58:30.557Z,4.40
2019-02-04T21:00:57.911Z,4.40
2019-02-04T21:03:25.282Z,4.40
2019-02-04T21:05:53.431Z,4.40
2019-02-04T21:08:20.972Z,4.40
2019-02-04T21:10:48.460Z,4.40
2019-02-04T21:13:15.932Z,4.40
2019-02-04T21:15:43.377Z,4.40
2019-02-04T21:18:10.738Z,4.50
2019-02-04T21:20:38.174Z,4.40
2019-02-04T21:23:05.612Z,4.40
2019-02-04T21:25:33.462Z,4.40
2019-02-04T21:28:00.782Z,4.40
2019-02-04T21:30:30.070Z,4.40
2019-02-04T21:32:57.574Z,4.40
2019-02-04T21:35:25.180Z,4.40
2019-02-04T21:37:52.562Z,4.40
2019-02-04T21:40:20.430Z,4.40
2019-02-04T21:42:47.950Z,4.40
2019-02-04T21:45:16.712Z,4.30
2019-02-04T21:47:44.066Z,4.30
2019-02-04T21:50:14.194Z,4.30
2019-02-04T21:52:41.569Z,4.30
2019-02-04T21:55:09.170Z,4.30
2019-02-04T21:57:36.399Z,4.30
2019-02-04T22:00:05.749Z,4.30
2019-02-04T22:02:32.996Z,4.30
2019-02-04T22:05:00.334Z,4.30
2019-02-04T22:07:27.687Z,4.30
2019-02-04T22:09:55.067Z,4.30
2019-02-04T22:12:22.789Z,4.30
2019-02-04T22:14:50.131Z,4.30
2019-02-04T22:17:17.758Z,4.30
2019-02-04T22:19:45.091Z,4.30
2019-02-04T22:22:12.767Z,4.30
2019-02-04T22:24:40.078Z,4.30
2019-02-04T22:27:07.415Z,4.20
2019-02-04T22:29:34.734Z,4.20
2019-02-04T22:32:02.086Z,4.20
2019-02-04T22:34:29.721Z,4.10
2019-02-04T22:36:57.039Z,4.10
2019-02-04T22:39:24.372Z,4.00
2019-02-04T22:41:51.717Z,4.00
2019-02-04T22:44:19.055Z,3.90
2019-02-04T22:46:46.489Z,3.80
2019-02-04T22:49:13.801Z,3.70
2019-02-04T22:51:41.149Z,3.70
2019-02-04T22:54:08.710Z,3.70
2019-02-04T22:56:36.057Z,3.60
2019-02-04T22:59:03.418Z,3.60
2019-02-04T23:01:39.157Z,3.60
2019-02-04T23:04:07.349Z,3.50
2019-02-04T23:06:34.701Z,3.50
2019-02-04T23:09:03.901Z,3.50
2019-02-04T23:11:31.129Z,3.60
2019-02-04T23:13:58.449Z,3.60
2019-02-04T23:16:25.761Z,3.60
2019-02-04T23:18:53.101Z,3.60
2019-02-04T23:21:20.430Z,3.60
2019-02-04T23:23:47.782Z,3.60
2019-02-04T23:26:15.096Z,3.60
2019-02-04T23:28:42.352Z,3.60
2019-02-04T23:31:09.570Z,3.60
2019-02-04T23:33:36.928Z,3.60
2019-02-04T23:36:04.515Z,3.60
2019-02-04T23:38:31.832Z,3.70
2019-02-04T23:40:59.088Z,3.70
2019-02-04T23:43:26.399Z,3.70
2019-02-04T23:45:56.524Z,3.70
2019-02-04T23:48:29.500Z,3.70
2019-02-04T23:50:56.792Z,3.70
2019-02-04T23:53:23.990Z,3.80
2019-02-04T23:55:54.696Z,3.70
2019-02-04T23:58:20.540Z,3.80
